Time;durP1;ratioP1;P1;durP2;ratioP2;P2;SDS_P1;SDS_P2;PMS_P1;PMS_P2;Temp;Humidity;BMP_temperature;BMP_pressure;BME280_temperature;BME280_humidity;BME280_pressure;Samples;Min_cycle;Max_cycle;Signal;HPM_P1;HPM_P2
2022/08/15 00:03:58;;;;;;;7.53;5.43;;;19.10;99.90;;;;;;7312813;32;20756;-65
2022/08/15 00:08:05;;;;;;;8.50;5.75;;;19.10;99.90;;;;;;7314757;32;20163;-64
2022/08/15 00:12:26;;;;;;;6.43;5.70;;;19.10;99.90;;;;;;7316137;32;20766;-65
2022/08/15 00:16:48;;;;;;;6.35;5.28;;;19.10;99.90;;;;;;7310941;32;20161;-63
2022/08/15 00:20:50;;;;;;;6.50;5.90;;;19.20;99.90;;;;;;7317187;32;20514;-62
2022/08/15 00:24:52;;;;;;;8.15;5.55;;;19.10;99.90;;;;;;7312754;32;20214;-63
2022/08/15 00:28:54;;;;;;;7.65;5.90;;;19.20;99.90;;;;;;7316046;32;20112;-63
2022/08/15 00:32:59;;;;;;;6.32;5.70;;;19.10;99.90;;;;;;7311750;32;20104;-63
2022/08/15 00:37:21;;;;;;;7.62;5.68;;;19.10;99.90;;;;;;7316283;32;20531;-64
2022/08/15 00:41:42;;;;;;;7.22;6.45;;;19.20;99.90;;;;;;7312796;32;20216;-63
2022/08/15 00:45:44;;;;;;;11.43;5.87;;;19.10;99.90;;;;;;7312200;32;20220;-63
2022/08/15 00:49:56;;;;;;;8.20;6.32;;;19.10;99.90;;;;;;7312005;32;20264;-64
2022/08/15 00:54:21;;;;;;;6.07;5.35;;;19.20;99.90;;;;;;7315474;32;20130;-63
2022/08/15 00:58:44;;;;;;;8.30;5.65;;;19.30;99.90;;;;;;7302285;32;20131;-62
2022/08/15 01:02:59;;;;;;;5.95;5.35;;;19.40;99.90;;;;;;7315369;32;20131;-63
2022/08/15 01:07:05;;;;;;;8.15;5.30;;;19.40;99.90;;;;;;7318563;32;20213;-63
2022/08/15 01:11:30;;;;;;;6.93;5.43;;;19.50;99.90;;;;;;7309076;32;20229;-62
2022/08/15 01:15:35;;;;;;;7.43;5.90;;;19.50;99.90;;;;;;7312320;32;20214;-62
2022/08/15 01:19:50;;;;;;;6.68;5.90;;;19.50;99.90;;;;;;7310793;32;20789;-62
2022/08/15 01:23:55;;;;;;;7.20;5.65;;;19.40;99.90;;;;;;7313200;32;20291;-62
2022/08/15 01:28:06;;;;;;;6.70;5.50;;;19.40;99.90;;;;;;7301894;32;20688;-63
2022/08/15 01:32:08;;;;;;;5.25;4.75;;;19.40;99.90;;;;;;7312173;32;20274;-63
2022/08/15 01:36:10;;;;;;;9.75;5.68;;;19.40;99.90;;;;;;7316115;32;20131;-62
2022/08/15 01:40:59;;;;;;;8.15;4.87;;;19.40;99.90;;;;;;7309773;32;20210;-63
2022/08/15 01:45:14;;;;;;;5.32;4.82;;;19.50;99.90;;;;;;7316459;32;20221;-62
2022/08/15 01:49:26;;;;;;;5.45;4.82;;;19.50;99.90;;;;;;7314303;32;20566;-62
2022/08/15 01:53:55;;;;;;;5.55;4.40;;;19.50;99.90;;;;;;7316600;32;20195;-62
2022/08/15 01:58:05;;;;;;;5.18;4.55;;;19.60;99.90;;;;;;7307820;32;20820;-62
2022/08/15 02:02:11;;;;;;;5.90;4.30;;;19.60;99.90;;;;;;7309735;32;20298;-62
2022/08/15 02:06:33;;;;;;;6.85;4.65;;;19.50;99.90;;;;;;7311401;32;20230;-62
2022/08/15 02:10:37;;;;;;;6.07;4.12;;;19.60;99.90;;;;;;7310581;32;20174;-63
2022/08/15 02:14:41;;;;;;;6.57;5.32;;;19.50;99.90;;;;;;7312119;32;20219;-65
2022/08/15 02:18:43;;;;;;;7.10;5.03;;;19.50;99.90;;;;;;7312908;32;20134;-62
2022/08/15 02:22:46;;;;;;;5.62;4.60;;;19.40;99.90;;;;;;7313696;32;20129;-63
2022/08/15 02:26:53;;;;;;;5.28;4.40;;;19.40;99.90;;;;;;7309522;32;20649;-62
2022/08/15 02:30:55;;;;;;;4.80;4.30;;;19.30;99.90;;;;;;7305336;32;20108;-62
2022/08/15 02:34:59;;;;;;;8.27;4.75;;;19.30;99.90;;;;;;7310180;32;20529;-62
2022/08/15 02:39:04;;;;;;;9.27;4.25;;;19.20;99.90;;;;;;7311341;32;20621;-63
2022/08/15 02:43:09;;;;;;;6.07;4.50;;;19.20;99.90;;;;;;7309548;32;20183;-62
2022/08/15 02:47:14;;;;;;;8.38;5.20;;;19.20;99.90;;;;;;7309139;32;20627;-62
2022/08/15 02:51:27;;;;;;;11.00;4.72;;;19.20;99.90;;;;;;7309268;32;20217;-62
2022/08/15 02:55:33;;;;;;;7.30;5.15;;;19.10;99.90;;;;;;7307779;32;20227;-61
2022/08/15 02:59:34;;;;;;;7.57;5.03;;;19.00;99.90;;;;;;7307166;32;20187;-62
2022/08/15 03:03:39;;;;;;;7.53;5.40;;;19.00;99.90;;;;;;7307615;32;20165;-61
2022/08/15 03:07:41;;;;;;;6.65;5.18;;;18.90;99.90;;;;;;7310387;32;20175;-62
2022/08/15 03:11:44;;;;;;;9.80;5.65;;;18.90;99.90;;;;;;7312828;32;20112;-62
2022/08/15 03:15:58;;;;;;;7.20;5.28;;;18.80;99.90;;;;;;7307778;32;20130;-61
2022/08/15 03:20:01;;;;;;;5.55;4.28;;;18.80;99.90;;;;;;7312098;32;20120;-65
2022/08/15 03:24:06;;;;;;;5.82;4.00;;;18.80;99.90;;;;;;7317639;32;20707;-64
2022/08/15 03:28:08;;;;;;;4.95;4.22;;;18.90;99.90;;;;;;7321133;32;20130;-64
2022/08/15 03:32:30;;;;;;;7.45;3.65;;;18.90;99.90;;;;;;7315409;32;20099;-64
2022/08/15 03:36:36;;;;;;;6.68;3.90;;;18.90;99.90;;;;;;7319329;32;20111;-65
2022/08/15 03:40:41;;;;;;;5.40;3.17;;;18.90;99.90;;;;;;7319174;32;20247;-65
2022/08/15 03:44:46;;;;;;;5.47;3.20;;;18.90;99.90;;;;;;7316502;32;20170;-65
2022/08/15 03:48:56;;;;;;;5.30;3.15;;;19.00;99.90;;;;;;7313505;32;20737;-65
2022/08/15 03:53:03;;;;;;;5.47;2.95;;;19.00;99.90;;;;;;7315854;32;20116;-65
2022/08/15 03:57:05;;;;;;;4.22;2.83;;;19.00;99.90;;;;;;7317268;32;20800;-65
2022/08/15 04:01:13;;;;;;;6.57;3.17;;;19.00;99.90;;;;;;7314169;32;20172;-65
2022/08/15 04:05:15;;;;;;;7.28;2.90;;;19.00;99.90;;;;;;7317060;32;20205;-63
2022/08/15 04:09:17;;;;;;;5.30;2.75;;;19.10;99.90;;;;;;7312664;32;20133;-64
2022/08/15 04:13:31;;;;;;;7.18;3.08;;;19.20;99.90;;;;;;7316328;32;20120;-64
2022/08/15 04:17:33;;;;;;;5.70;3.25;;;19.30;99.90;;;;;;7312418;32;20282;-64
2022/08/15 04:22:03;;;;;;;4.97;3.30;;;19.30;99.90;;;;;;7314559;32;20595;-65
2022/08/15 04:26:07;;;;;;;7.03;3.53;;;19.50;99.90;;;;;;7310061;32;20193;-65
2022/08/15 04:30:11;;;;;;;5.70;3.90;;;19.50;99.90;;;;;;7309477;32;20168;-64
2022/08/15 04:34:17;;;;;;;5.55;3.70;;;19.40;99.90;;;;;;7310670;32;20151;-63
2022/08/15 04:38:41;;;;;;;6.93;3.95;;;19.40;99.90;;;;;;7314652;32;20163;-64
2022/08/15 04:42:53;;;;;;;11.45;4.20;;;19.40;99.90;;;;;;7311614;32;20115;-64
2022/08/15 04:46:58;;;;;;;7.47;3.30;;;19.20;99.90;;;;;;7314014;32;20225;-64
2022/08/15 04:51:03;;;;;;;9.70;2.97;;;19.20;99.90;;;;;;7308376;32;20223;-65
2022/08/15 04:55:05;;;;;;;5.55;3.08;;;19.30;99.90;;;;;;7311314;32;20104;-65
2022/08/15 04:59:08;;;;;;;3.70;2.45;;;19.50;99.90;;;;;;7311670;32;20235;-65
2022/08/15 05:03:31;;;;;;;3.92;2.42;;;19.70;99.90;;;;;;7308956;32;20490;-60
2022/08/15 05:07:33;;;;;;;6.15;2.17;;;20.20;99.90;;;;;;7311931;32;20314;-61
2022/08/15 05:11:37;;;;;;;3.75;2.20;;;20.40;99.90;;;;;;7314922;32;20115;-62
2022/08/15 05:15:59;;;;;;;5.50;2.40;;;20.70;99.90;;;;;;7297031;32;20187;-61
2022/08/15 05:20:01;;;;;;;3.80;2.10;;;20.80;99.90;;;;;;7310787;32;20111;-60
2022/08/15 05:24:06;;;;;;;5.70;2.20;;;20.90;99.90;;;;;;7315633;32;20342;-61
2022/08/15 05:28:09;;;;;;;9.35;2.45;;;21.10;99.90;;;;;;7306947;32;20113;-61
2022/08/15 05:32:33;;;;;;;4.62;2.10;;;21.20;99.90;;;;;;7309552;32;20182;-61
2022/08/15 05:36:35;;;;;;;5.40;2.42;;;21.10;99.90;;;;;;7313284;32;20133;-61
2022/08/15 05:40:56;;;;;;;8.90;2.70;;;21.20;99.90;;;;;;7315903;32;20219;-62
2022/08/15 05:44:58;;;;;;;6.03;1.98;;;21.20;99.90;;;;;;7310352;32;20193;-61
2022/08/15 05:49:13;;;;;;;5.25;2.40;;;21.30;99.90;;;;;;7312248;32;20252;-62
2022/08/15 05:53:15;;;;;;;6.65;1.92;;;21.50;99.90;;;;;;7309092;32;20401;-60
2022/08/15 05:57:45;;;;;;;9.98;2.53;;;21.50;99.90;;;;;;7299553;32;20162;-63
2022/08/15 06:01:59;;;;;;;5.85;2.40;;;21.70;99.90;;;;;;7308089;32;20153;-63
2022/08/15 06:06:26;;;;;;;5.62;2.55;;;21.80;99.90;;;;;;7312944;32;20806;-63
2022/08/15 06:10:36;;;;;;;4.85;2.30;;;21.70;99.90;;;;;;7310796;32;20702;-64
2022/08/15 06:14:42;;;;;;;5.18;2.30;;;21.70;99.90;;;;;;7310229;32;20123;-64
2022/08/15 06:18:47;;;;;;;3.95;2.30;;;21.80;99.90;;;;;;7312474;32;20287;-64
2022/08/15 06:23:05;;;;;;;3.55;2.37;;;21.90;99.90;;;;;;7311299;32;20201;-64
2022/08/15 06:27:31;;;;;;;8.02;2.28;;;22.00;99.90;;;;;;7301104;32;20515;-64
2022/08/15 06:32:11;;;;;;;5.40;2.37;;;22.00;99.90;;;;;;7312431;32;20570;-63
2022/08/15 06:36:50;;;;;;;10.82;2.40;;;22.10;99.90;;;;;;7294945;32;20202;-63
2022/08/15 06:41:03;;;;;;;5.47;2.45;;;22.10;99.90;;;;;;7306068;32;20648;-64
2022/08/15 06:45:39;;;;;;;7.05;2.30;;;22.20;99.90;;;;;;7307609;32;20204;-63
2022/08/15 06:49:56;;;;;;;8.07;2.67;;;22.30;99.90;;;;;;7310587;32;20804;-64
2022/08/15 06:53:59;;;;;;;3.37;2.20;;;22.40;99.90;;;;;;7311049;32;20234;-63
2022/08/15 06:58:12;;;;;;;5.07;2.05;;;22.40;99.90;;;;;;7314483;32;20237;-63
2022/08/15 07:02:40;;;;;;;7.07;2.20;;;22.30;99.90;;;;;;7305599;32;20249;-64
2022/08/15 07:06:50;;;;;;;6.25;2.50;;;22.40;99.90;;;;;;7310903;32;20127;-63
2022/08/15 07:11:07;;;;;;;6.03;2.20;;;22.60;99.90;;;;;;7307362;32;20570;-64
2022/08/15 07:15:24;;;;;;;4.90;2.00;;;22.60;99.90;;;;;;7311324;32;20103;-62
2022/08/15 07:19:26;;;;;;;;;;;22.70;99.90;;;;;;7311850;32;20871;-62
2022/08/15 07:23:57;;;;;;;5.22;2.25;;;22.90;99.90;;;;;;7311994;32;20393;-61
2022/08/15 07:28:05;;;;;;;5.25;2.50;;;23.00;99.90;;;;;;7313990;32;20448;-61
2022/08/15 07:32:12;;;;;;;5.43;1.95;;;23.00;99.90;;;;;;7299227;32;20238;-61
2022/08/15 07:36:34;;;;;;;5.03;2.50;;;23.10;99.90;;;;;;7309340;32;20095;-60
2022/08/15 07:40:43;;;;;;;8.75;2.15;;;23.20;99.90;;;;;;7295249;32;20293;-63
2022/08/15 07:44:59;;;;;;;;;;;23.20;99.90;;;;;;7313733;32;20120;-62
2022/08/15 07:49:12;;;;;;;8.65;2.78;;;23.30;99.90;;;;;;7310476;32;20007;-62
2022/08/15 07:53:21;;;;;;;5.32;2.58;;;23.30;99.90;;;;;;7303639;32;20112;-62
2022/08/15 07:57:30;;;;;;;5.10;2.58;;;23.40;99.90;;;;;;7309509;32;20135;-63
2022/08/15 08:02:17;;;;;;;4.15;2.37;;;23.50;99.90;;;;;;7305185;32;20123;-61
2022/08/15 08:07:12;;;;;;;10.32;2.10;;;23.60;99.90;;;;;;7318797;32;20138;-61
2022/08/15 08:11:44;;;;;;;6.90;2.40;;;23.70;99.90;;;;;;7313173;32;20194;-62
2022/08/15 08:15:55;;;;;;;3.35;2.40;;;24.00;99.90;;;;;;7312756;32;20278;-62
2022/08/15 08:20:38;;;;;;;8.88;2.40;;;24.00;99.90;;;;;;7313158;32;20133;-60
2022/08/15 08:24:53;;;;;;;5.90;2.45;;;24.10;99.90;;;;;;7309707;32;20167;-62
2022/08/15 08:29:04;;;;;;;4.30;2.40;;;24.10;99.90;;;;;;7311769;32;20186;-62
2022/08/15 08:33:38;;;;;;;5.72;2.50;;;24.10;99.90;;;;;;7314952;32;20134;-62
2022/08/15 08:38:29;;;;;;;7.12;2.67;;;24.20;99.90;;;;;;7316833;32;20138;-62
2022/08/15 08:43:21;;;;;;;10.30;3.08;;;24.30;99.90;;;;;;7312834;32;20295;-61
2022/08/15 08:47:55;;;;;;;7.45;2.72;;;24.30;99.90;;;;;;7314051;32;20099;-61
2022/08/15 08:52:25;;;;;;;5.85;2.75;;;24.50;99.90;;;;;;7316049;32;20141;-61
2022/08/15 08:56:50;;;;;;;5.25;2.80;;;24.90;99.90;;;;;;7308568;32;20230;-61
2022/08/15 09:00:59;;;;;;;10.90;2.95;;;24.90;99.90;;;;;;7308811;32;20131;-61
2022/08/15 09:05:25;;;;;;;4.25;2.72;;;25.00;99.90;;;;;;7311937;32;20112;-61
2022/08/15 09:09:39;;;;;;;8.15;3.10;;;24.80;99.90;;;;;;7302854;32;20787;-63
2022/08/15 09:13:45;;;;;;;3.72;2.60;;;24.70;99.90;;;;;;7300890;32;20717;-62
2022/08/15 09:18:18;;;;;;;6.97;3.00;;;24.70;99.90;;;;;;7315552;32;20278;-63
2022/08/15 09:22:21;;;;;;;7.93;3.17;;;24.70;99.90;;;;;;7286418;32;20218;-67
2022/08/15 09:26:41;;;;;;;5.00;2.90;;;24.70;99.90;;;;;;7312121;32;20577;-67
2022/08/15 09:30:49;;;;;;;6.28;3.08;;;24.70;99.90;;;;;;7296753;32;20103;-66
2022/08/15 09:35:07;;;;;;;10.15;3.45;;;24.50;99.90;;;;;;7316024;32;20194;-66
2022/08/15 09:39:22;;;;;;;8.40;3.03;;;24.50;99.90;;;;;;7306067;32;20595;-67
2022/08/15 09:43:31;;;;;;;9.15;3.05;;;24.50;99.90;;;;;;7296928;32;20341;-61
2022/08/15 09:47:40;;;;;;;9.45;2.95;;;24.50;99.90;;;;;;7312043;32;20107;-61
2022/08/15 09:52:13;;;;;;;11.88;3.05;;;24.50;99.90;;;;;;7306607;32;20108;-62
2022/08/15 09:56:37;;;;;;;7.82;2.92;;;24.50;99.90;;;;;;7311278;32;20198;-61
2022/08/15 10:01:12;;;;;;;10.10;3.00;;;24.40;99.90;;;;;;7303712;32;20111;-62
2022/08/15 10:05:47;;;;;;;6.28;2.97;;;24.30;99.90;;;;;;7311935;32;20126;-67
2022/08/15 10:10:00;;;;;;;5.25;2.65;;;24.20;99.90;;;;;;7303439;32;20255;-66
2022/08/15 10:14:14;;;;;;;10.77;3.10;;;24.10;99.90;;;;;;7307048;32;22654;-68
2022/08/15 10:18:22;;;;;;;8.60;3.15;;;24.20;99.90;;;;;;7311355;32;20220;-67
2022/08/15 10:22:26;;;;;;;9.75;3.87;;;24.30;99.90;;;;;;7308507;32;20143;-67
2022/08/15 10:27:08;;;;;;;6.30;2.92;;;24.30;99.90;;;;;;7302760;32;20221;-68
2022/08/15 10:31:19;;;;;;;6.30;3.12;;;24.40;99.90;;;;;;7298898;32;20131;-68
2022/08/15 10:35:45;;;;;;;6.78;3.08;;;24.40;99.90;;;;;;7313332;32;20116;-69
2022/08/15 10:40:20;;;;;;;8.30;3.30;;;24.50;99.90;;;;;;7311262;32;20107;-71
2022/08/15 10:44:46;;;;;;;8.60;3.37;;;24.40;99.90;;;;;;7312457;32;20125;-67
2022/08/15 10:49:25;;;;;;;6.78;3.72;;;24.30;99.90;;;;;;7306885;32;20123;-69
2022/08/15 10:54:10;;;;;;;7.90;3.30;;;24.10;99.90;;;;;;7305475;32;20546;-68
2022/08/15 10:58:22;;;;;;;6.10;3.25;;;24.00;99.90;;;;;;7272523;32;20158;-61
2022/08/15 11:02:43;;;;;;;11.52;3.87;;;24.00;99.90;;;;;;7311267;32;20132;-62
2022/08/15 11:07:28;;;;;;;6.35;3.50;;;23.90;99.90;;;;;;7304686;32;20171;-62
2022/08/15 11:11:38;;;;;;;11.00;4.00;;;23.80;99.90;;;;;;7309554;32;20289;-60
2022/08/15 11:15:55;;;;;;;8.23;3.85;;;23.70;99.90;;;;;;7306819;32;20184;-61
2022/08/15 11:20:12;;;;;;;12.82;3.67;;;23.80;99.90;;;;;;7307262;32;20658;-59
2022/08/15 11:24:30;;;;;;;13.00;4.07;;;23.80;99.90;;;;;;7311922;32;20139;-61
2022/08/15 11:28:33;;;;;;;6.62;3.28;;;23.80;99.90;;;;;;7307967;32;20211;-61
2022/08/15 11:33:15;;;;;;;9.55;3.90;;;23.80;99.90;;;;;;7294498;32;20267;-61
2022/08/15 11:37:24;;;;;;;6.78;3.72;;;23.80;99.90;;;;;;7313571;32;20739;-70
2022/08/15 11:41:30;;;;;;;8.70;4.15;;;23.60;99.90;;;;;;7326619;32;20218;-70
2022/08/15 11:45:43;;;;;;;7.85;4.07;;;23.60;99.90;;;;;;7337929;32;20198;-70
2022/08/15 11:49:54;;;;;;;6.75;3.70;;;23.60;99.90;;;;;;7326308;32;20158;-70
2022/08/15 11:54:21;;;;;;;11.48;4.32;;;23.60;99.90;;;;;;7309611;32;20139;-70
2022/08/15 11:58:38;;;;;;;8.52;3.67;;;23.50;99.90;;;;;;7309820;32;20190;-64
2022/08/15 12:03:30;;;;;;;5.87;3.37;;;23.50;99.90;;;;;;7301389;32;20116;-63
2022/08/15 12:07:57;;;;;;;9.52;4.30;;;23.60;99.90;;;;;;7314423;32;20158;-64
2022/08/15 12:12:01;;;;;;;5.32;3.53;;;23.60;99.90;;;;;;7313444;32;20120;-63
2022/08/15 12:16:04;;;;;;;8.63;3.80;;;23.70;99.90;;;;;;7311046;32;20810;-63
2022/08/15 12:20:48;;;;;;;8.88;3.47;;;23.70;99.90;;;;;;7300999;32;20456;-64
2022/08/15 12:24:51;;;;;;;6.00;3.67;;;23.70;99.90;;;;;;7316269;32;20111;-63
2022/08/15 12:28:55;;;;;;;13.32;4.00;;;23.70;99.90;;;;;;7298501;32;20177;-64
2022/08/15 12:32:56;;;;;;;9.13;4.50;;;23.50;99.90;;;;;;7298750;32;20124;-64
2022/08/15 12:37:08;;;;;;;7.18;4.07;;;23.40;99.90;;;;;;7316548;32;20337;-64
2022/08/15 12:41:11;;;;;;;7.32;4.43;;;23.30;99.90;;;;;;7296017;32;20880;-64
2022/08/15 12:45:33;;;;;;;7.15;3.90;;;23.30;99.90;;;;;;7309613;32;20249;-63
2022/08/15 12:49:39;;;;;;;6.47;3.90;;;23.30;99.90;;;;;;7309775;32;20130;-64
2022/08/15 12:53:48;;;;;;;5.75;3.67;;;23.50;99.90;;;;;;7308158;32;20139;-64
2022/08/15 12:57:52;;;;;;;7.40;3.65;;;23.50;99.90;;;;;;7308242;32;20286;-63
2022/08/15 13:01:57;;;;;;;8.18;3.62;;;23.60;99.90;;;;;;7299694;32;20226;-64
2022/08/15 13:06:05;;;;;;;7.80;3.78;;;23.60;99.90;;;;;;7297212;32;20195;-63
2022/08/15 13:10:27;;;;;;;9.13;3.62;;;23.60;99.90;;;;;;7312935;32;20625;-64
2022/08/15 13:14:49;;;;;;;6.75;3.80;;;23.60;99.90;;;;;;7312144;32;20107;-63
2022/08/15 13:18:53;;;;;;;4.70;3.80;;;23.60;99.90;;;;;;7315061;32;20123;-63
2022/08/15 13:27:16;;;;;;;6.70;3.40;;;23.80;99.90;;;;;;7308219;32;20194;-63
2022/08/15 13:31:19;;;;;;;4.22;3.30;;;23.70;99.90;;;;;;7303114;32;20104;-64
2022/08/15 13:35:28;;;;;;;4.97;3.33;;;23.70;99.90;;;;;;7312690;32;20127;-63
2022/08/15 13:39:35;;;;;;;6.25;3.55;;;23.80;99.90;;;;;;7310444;32;20132;-63
2022/08/15 13:43:59;;;;;;;5.40;3.67;;;23.90;99.90;;;;;;7312628;32;20151;-63
2022/08/15 13:48:01;;;;;;;5.97;3.50;;;23.80;99.90;;;;;;7303009;32;20256;-63
2022/08/15 13:52:16;;;;;;;4.97;3.10;;;23.90;99.90;;;;;;7316493;32;20627;-63
2022/08/15 13:56:38;;;;;;;6.72;3.50;;;23.80;99.90;;;;;;7311171;32;20259;-62
2022/08/15 14:00:43;;;;;;;7.03;3.65;;;24.00;99.90;;;;;;7308443;32;20112;-63
2022/08/15 14:05:08;;;;;;;7.72;3.92;;;24.10;99.90;;;;;;7311189;32;20231;-62
2022/08/15 14:09:10;;;;;;;6.93;3.45;;;24.20;99.90;;;;;;7312740;32;20359;-62
2022/08/15 14:13:32;;;;;;;6.87;3.45;;;24.20;99.90;;;;;;7311842;32;20104;-62
2022/08/15 14:17:35;;;;;;;7.57;3.78;;;24.30;99.90;;;;;;7312024;32;20582;-62
2022/08/15 14:21:39;;;;;;;6.30;3.80;;;24.40;99.90;;;;;;7293622;32;20115;-61
2022/08/15 14:25:52;;;;;;;6.32;3.12;;;24.60;99.90;;;;;;7307953;32;20364;-61
2022/08/15 14:30:14;;;;;;;5.68;3.75;;;24.80;99.90;;;;;;7310931;32;20095;-62
2022/08/15 14:34:17;;;;;;;4.53;2.92;;;25.00;99.90;;;;;;7299349;32;20144;-62
2022/08/15 14:38:39;;;;;;;7.95;3.72;;;25.30;99.90;;;;;;7302356;32;20195;-62
2022/08/15 14:42:42;;;;;;;5.18;2.97;;;25.90;99.90;;;;;;7307904;32;20206;-62
2022/08/15 14:46:46;;;;;;;4.50;3.22;;;26.10;99.90;;;;;;7309370;32;20209;-62
2022/08/15 14:50:50;;;;;;;8.10;3.33;;;25.90;99.90;;;;;;7303634;32;20254;-62
2022/08/15 14:55:12;;;;;;;6.05;3.50;;;25.90;99.90;;;;;;7307780;32;20190;-62
2022/08/15 14:59:20;;;;;;;7.47;3.45;;;25.80;99.90;;;;;;7308334;32;20346;-62
2022/08/15 15:03:23;;;;;;;6.90;3.70;;;25.60;99.90;;;;;;7309984;32;20476;-62
2022/08/15 15:07:32;;;;;;;6.18;3.35;;;25.70;99.90;;;;;;7308037;32;20099;-61
2022/08/15 15:11:54;;;;;;;6.32;3.55;;;25.60;99.90;;;;;;7311942;32;20095;-62
2022/08/15 15:15:57;;;;;;;5.90;3.35;;;25.50;99.90;;;;;;7311107;32;20123;-62
2022/08/15 15:20:19;;;;;;;7.12;3.40;;;25.40;99.90;;;;;;7308306;32;20153;-63
2022/08/15 15:24:41;;;;;;;5.47;3.65;;;25.40;99.90;;;;;;7294333;32;20645;-63
2022/08/15 15:28:45;;;;;;;7.00;3.50;;;25.30;99.90;;;;;;7312166;32;20107;-62
2022/08/15 15:32:48;;;;;;;7.62;3.33;;;25.30;99.90;;;;;;7315976;32;20127;-63
2022/08/15 15:36:50;;;;;;;4.30;3.33;;;25.20;99.90;;;;;;7311725;32;20241;-62
2022/08/15 15:41:00;;;;;;;6.62;3.35;;;25.10;99.90;;;;;;7315636;32;20099;-71
2022/08/15 15:45:07;;;;;;;4.95;3.28;;;25.30;99.90;;;;;;7300380;32;20190;-70
2022/08/15 15:49:17;;;;;;;5.57;3.15;;;25.20;99.90;;;;;;7313830;32;20099;-69
2022/08/15 15:53:24;;;;;;;6.57;2.90;;;25.30;99.90;;;;;;7307904;32;20235;-69
2022/08/15 15:57:27;;;;;;;6.43;3.05;;;25.40;99.90;;;;;;7317776;32;20114;-69
2022/08/15 16:01:50;;;;;;;7.15;3.25;;;25.50;99.90;;;;;;7318210;32;20242;-69
2022/08/15 16:06:16;;;;;;;4.55;3.12;;;25.50;99.90;;;;;;7313036;32;20448;-69
2022/08/15 16:10:43;;;;;;;3.25;2.83;;;25.50;99.90;;;;;;7309453;32;20174;-68
2022/08/15 16:15:17;;;;;;;5.85;2.83;;;25.50;99.90;;;;;;7309584;32;20554;-69
2022/08/15 16:20:03;;;;;;;5.85;3.10;;;25.70;99.90;;;;;;7314811;32;20130;-70
2022/08/15 16:24:51;;;;;;;5.12;3.28;;;25.80;99.90;;;;;;7312132;32;20688;-69
2022/08/15 16:29:01;;;;;;;6.97;3.12;;;25.80;99.90;;;;;;7311537;32;20290;-70
2022/08/15 16:33:19;;;;;;;6.93;3.35;;;25.60;99.90;;;;;;7319348;32;20255;-69
2022/08/15 16:37:29;;;;;;;5.60;3.42;;;25.30;99.90;;;;;;7320244;32;20126;-70
2022/08/15 16:41:50;;;;;;;7.22;3.10;;;25.30;99.90;;;;;;7317283;32;20631;-69
2022/08/15 16:46:35;;;;;;;5.78;2.72;;;25.20;99.90;;;;;;7314419;32;20116;-62
2022/08/15 16:50:44;;;;;;;5.37;2.87;;;25.20;99.90;;;;;;7281153;32;20182;-62
2022/08/15 16:55:01;;;;;;;5.07;2.55;;;25.20;99.90;;;;;;7304907;32;20132;-69
2022/08/15 16:59:54;;;;;;;3.83;2.60;;;25.10;99.90;;;;;;7314390;32;20159;-68
2022/08/15 17:04:26;;;;;;;3.83;2.72;;;25.00;99.90;;;;;;7310896;32;20505;-69
2022/08/15 17:08:54;;;;;;;5.70;2.70;;;25.00;99.90;;;;;;7313345;32;21068;-67
2022/08/15 17:13:03;;;;;;;7.87;2.45;;;25.10;99.90;;;;;;7311394;32;20145;-69
2022/08/15 17:17:49;;;;;;;4.78;2.33;;;25.10;99.90;;;;;;7307083;32;20119;-68
2022/08/15 17:22:01;;;;;;;4.05;2.58;;;25.10;99.90;;;;;;7314308;32;20384;-68
2022/08/15 17:26:43;;;;;;;4.00;2.40;;;25.20;99.90;;;;;;7315480;32;20277;-67
2022/08/15 17:31:11;;;;;;;6.65;2.20;;;25.30;99.90;;;;;;7319253;32;20241;-67
2022/08/15 17:35:14;;;;;;;5.65;2.53;;;25.20;99.90;;;;;;7324850;32;20101;-67
2022/08/15 17:39:19;;;;;;;3.05;2.20;;;25.20;99.90;;;;;;7316961;32;20785;-68
2022/08/15 17:43:27;;;;;;;4.70;2.33;;;25.20;99.90;;;;;;7315515;32;20370;-68
2022/08/15 17:47:38;;;;;;;2.53;2.12;;;25.00;99.90;;;;;;7313407;32;20623;-68
2022/08/15 17:51:48;;;;;;;3.40;2.17;;;24.90;99.90;;;;;;7314735;32;20111;-69
2022/08/15 17:55:58;;;;;;;4.18;2.35;;;24.90;99.90;;;;;;7319479;32;20135;-68
2022/08/15 18:00:13;;;;;;;3.62;2.50;;;24.60;99.90;;;;;;7317342;32;20311;-67
2022/08/15 18:04:33;;;;;;;2.30;1.85;;;24.60;99.90;;;;;;7314715;32;20222;-67
2022/08/15 18:08:46;;;;;;;3.20;2.35;;;24.60;99.90;;;;;;7318819;32;20152;-68
2022/08/15 18:13:00;;;;;;;2.40;2.10;;;24.50;99.90;;;;;;7319954;32;20115;-67
2022/08/15 18:17:18;;;;;;;3.62;1.90;;;24.30;99.90;;;;;;7310491;32;20227;-67
2022/08/15 18:21:43;;;;;;;2.45;2.10;;;24.20;99.90;;;;;;7312980;32;20123;-66
2022/08/15 18:26:21;;;;;;;4.65;2.42;;;24.00;99.90;;;;;;7312283;32;20223;-67
2022/08/15 18:30:43;;;;;;;3.58;2.30;;;23.90;99.90;;;;;;7312648;32;20141;-61
2022/08/15 18:34:53;;;;;;;5.35;2.20;;;23.80;99.90;;;;;;7306002;32;20103;-62
2022/08/15 18:43:20;;;;;;;3.28;2.12;;;23.60;99.90;;;;;;7311348;32;20115;-66
2022/08/15 18:47:38;;;;;;;2.97;2.33;;;23.50;99.90;;;;;;7309668;32;20477;-67
2022/08/15 18:51:59;;;;;;;5.68;2.30;;;23.30;99.90;;;;;;7313864;32;20658;-69
2022/08/15 18:56:02;;;;;;;4.93;2.25;;;23.30;99.90;;;;;;7311966;32;20130;-68
2022/08/15 19:00:26;;;;;;;5.95;2.22;;;23.20;99.90;;;;;;7306784;32;20340;-68
2022/08/15 19:04:37;;;;;;;5.45;2.22;;;23.10;99.90;;;;;;7306895;32;20142;-71
2022/08/15 19:09:00;;;;;;;2.90;2.10;;;23.00;99.90;;;;;;7302943;32;20855;-67
2022/08/15 19:13:10;;;;;;;3.33;2.30;;;22.90;99.90;;;;;;7316829;32;20183;-68
2022/08/15 19:17:24;;;;;;;8.20;2.50;;;22.80;99.90;;;;;;7309228;32;20274;-66
2022/08/15 19:21:26;;;;;;;4.55;2.20;;;22.80;99.90;;;;;;7312522;32;20277;-66
2022/08/15 19:25:42;;;;;;;8.98;2.60;;;22.70;99.90;;;;;;7310324;32;20173;-67
2022/08/15 19:30:09;;;;;;;6.25;2.80;;;22.60;99.90;;;;;;7311297;32;20154;-68
2022/08/15 19:34:30;;;;;;;4.60;2.65;;;22.60;99.90;;;;;;7312293;32;20788;-68
2022/08/15 19:38:56;;;;;;;4.28;2.30;;;22.50;99.90;;;;;;7312500;32;20269;-67
2022/08/15 19:43:26;;;;;;;6.22;2.50;;;22.40;99.90;;;;;;7313546;32;20159;-68
2022/08/15 19:47:45;;;;;;;5.43;2.50;;;22.40;99.90;;;;;;7314333;32;20182;-66
2022/08/15 19:51:54;;;;;;;5.43;2.65;;;22.30;99.90;;;;;;7314576;32;20139;-68
2022/08/15 19:56:03;;;;;;;6.30;2.72;;;22.20;99.90;;;;;;7313478;32;20142;-67
2022/08/15 20:00:14;;;;;;;3.35;2.42;;;22.10;99.90;;;;;;7318984;32;20514;-69
2022/08/15 20:04:30;;;;;;;4.20;2.55;;;22.00;99.90;;;;;;7317039;32;20104;-69
2022/08/15 20:09:25;;;;;;;3.42;2.37;;;21.90;99.90;;;;;;7307838;32;20156;-67
2022/08/15 20:14:10;;;;;;;5.12;3.80;;;21.90;99.90;;;;;;7317625;32;20190;-68
2022/08/15 20:19:00;;;;;;;4.97;3.60;;;21.80;99.90;;;;;;7306748;32;20257;-67
2022/08/15 20:23:47;;;;;;;3.75;2.60;;;21.70;99.90;;;;;;7314266;32;20164;-68
2022/08/15 20:28:01;;;;;;;8.38;3.17;;;21.60;99.90;;;;;;7307592;32;20190;-67
2022/08/15 20:32:15;;;;;;;5.65;3.37;;;21.50;99.90;;;;;;7312157;32;20103;-68
2022/08/15 20:36:42;;;;;;;8.23;3.47;;;21.50;99.90;;;;;;7316486;32;20532;-67
2022/08/15 20:40:58;;;;;;;6.40;3.30;;;21.30;99.90;;;;;;7315549;32;20305;-66
2022/08/15 20:45:18;;;;;;;9.63;3.25;;;21.20;99.90;;;;;;7309242;32;20171;-68
2022/08/15 20:49:24;;;;;;;8.60;3.15;;;21.00;99.90;;;;;;7315290;32;20138;-67
2022/08/15 20:53:27;;;;;;;9.05;3.45;;;20.90;99.90;;;;;;7316229;32;20198;-67
2022/08/15 20:57:38;;;;;;;6.82;3.30;;;20.70;99.90;;;;;;7319959;32;20128;-66
2022/08/15 21:01:45;;;;;;;9.07;3.58;;;20.60;99.90;;;;;;7310037;32;20220;-67
2022/08/15 21:05:52;;;;;;;8.95;4.45;;;20.40;99.90;;;;;;7302781;32;20211;-67
2022/08/15 21:10:02;;;;;;;7.55;3.30;;;20.30;99.90;;;;;;7316063;32;20577;-68
2022/08/15 21:14:42;;;;;;;8.73;3.62;;;20.10;99.90;;;;;;7319799;32;20538;-67
2022/08/15 21:19:32;;;;;;;10.57;3.33;;;20.00;99.90;;;;;;7311812;32;20154;-67
2022/08/15 21:23:38;;;;;;;7.20;3.92;;;19.80;99.90;;;;;;7313243;32;20808;-68
2022/08/15 21:27:40;;;;;;;6.43;3.40;;;19.70;99.90;;;;;;7308331;32;20483;-66
2022/08/15 21:31:55;;;;;;;8.98;3.78;;;19.60;99.90;;;;;;7313011;32;20191;-66
2022/08/15 21:36:17;;;;;;;5.87;3.58;;;19.40;99.90;;;;;;7314856;32;20218;-67
2022/08/15 21:40:38;;;;;;;8.30;4.15;;;19.40;99.90;;;;;;7305734;32;20099;-66
2022/08/15 21:45:12;;;;;;;9.18;3.40;;;19.30;99.90;;;;;;7311501;32;20127;-65
2022/08/15 21:49:34;;;;;;;6.03;4.15;;;19.20;99.90;;;;;;7305544;32;20175;-65
2022/08/15 21:53:39;;;;;;;7.80;3.92;;;19.20;99.90;;;;;;7315173;32;20111;-65
2022/08/15 21:58:19;;;;;;;6.30;4.00;;;19.00;99.90;;;;;;7316008;32;20298;-65
2022/08/15 22:02:57;;;;;;;6.40;4.10;;;19.10;99.90;;;;;;7313046;32;20654;-65
2022/08/15 22:06:59;;;;;;;7.37;3.83;;;19.10;99.90;;;;;;7305640;32;20107;-65
2022/08/15 22:11:36;;;;;;;6.93;4.05;;;19.00;99.90;;;;;;7305086;32;20107;-65
2022/08/15 22:15:39;;;;;;;9.90;3.78;;;19.00;99.90;;;;;;7318968;32;20207;-64
2022/08/15 22:19:43;;;;;;;7.93;3.80;;;19.00;99.90;;;;;;7318538;32;20104;-66
2022/08/15 22:23:46;;;;;;;6.65;3.67;;;18.90;99.90;;;;;;7311787;32;20144;-66